DMMIC EDXW-EDXH
Flight info
| Callsign | DMMIC |
|---|---|
| Flight time | 0h 15m |
| Altitude | |
| Route | |
| Aircraft | VL3 |
Departure
| Time | 2026-04-20 19:24 |
|---|---|
| Airport | Westerland Sylt Airport (EDXW) |
Arrival
| Time | 2026-04-20 19:39 |
|---|---|
| Airport | Helgoland-Düne Airport (EDXH) |
| Time | Latitude | Longitude | Altitude | Speed | Heading |
|---|---|---|---|---|---|
| 2026-04-20 19:24 | 54.93166 | 8.33057 | 1409 ft | 152 kts | 303° |
| 2026-04-20 19:24 | 54.93469 | 8.31451 | 1427 ft | 121 kts | 244° |
| 2026-04-20 19:24 | 54.93072 | 8.31518 | 1068 ft | 61 kts | 93° |
| 2026-04-20 19:25 | 54.92826 | 8.32118 | 782 ft | 62 kts | 108° |
| 2026-04-20 19:25 | 54.92493 | 8.32615 | 460 ft | 66 kts | 123° |
| 2026-04-20 19:25 | 54.92110 | 8.33068 | 146 ft | 65 kts | 135° |
| 2026-04-20 19:25 | 54.91764 | 8.33492 | 32 ft | 55 kts | 136° |
| 2026-04-20 19:26 | 54.91376 | 8.33974 | 101 ft | 135 kts | 141° |
| 2026-04-20 19:26 | 54.90497 | 8.35196 | 1424 ft | 154 kts | 138° |
| 2026-04-20 19:26 | 54.89552 | 8.35776 | 1673 ft | 138 kts | 175° |
| 2026-04-20 19:26 | 54.88343 | 8.35196 | 1902 ft | 222 kts | 198° |
| 2026-04-20 19:27 | 54.86869 | 8.33841 | 2390 ft | 245 kts | 205° |
| 2026-04-20 19:27 | 54.85344 | 8.32691 | 2579 ft | 233 kts | 194° |
| 2026-04-20 19:27 | 54.83791 | 8.32155 | 2552 ft | 215 kts | 179° |
| 2026-04-20 19:27 | 54.82373 | 8.32006 | 2415 ft | 209 kts | 176° |
| 2026-04-20 19:28 | 54.80769 | 8.31938 | 2429 ft | 240 kts | 176° |
| 2026-04-20 19:28 | 54.79094 | 8.31875 | 2426 ft | 241 kts | 176° |
| 2026-04-20 19:28 | 54.77415 | 8.31796 | 2423 ft | 241 kts | 176° |
| 2026-04-20 19:28 | 54.75749 | 8.31692 | 2443 ft | 238 kts | 174° |
| 2026-04-20 19:29 | 54.74101 | 8.31676 | 2437 ft | 236 kts | 173° |
| 2026-04-20 19:29 | 54.72461 | 8.31670 | 2435 ft | 236 kts | 173° |
| 2026-04-20 19:29 | 54.70829 | 8.31657 | 2426 ft | 235 kts | 173° |
| 2026-04-20 19:29 | 54.69190 | 8.31602 | 2429 ft | 236 kts | 176° |
| 2026-04-20 19:30 | 54.67546 | 8.31459 | 2428 ft | 236 kts | 176° |
| 2026-04-20 19:30 | 54.65903 | 8.31333 | 2427 ft | 237 kts | 176° |
| 2026-04-20 19:30 | 54.64262 | 8.30858 | 2423 ft | 250 kts | 195° |
| 2026-04-20 19:30 | 54.62611 | 8.29520 | 2421 ft | 269 kts | 202° |
| 2026-04-20 19:31 | 54.60871 | 8.27947 | 2425 ft | 326 kts | 203° |
| 2026-04-20 19:31 | 54.58705 | 8.26032 | 3675 ft | 349 kts | 202° |
| 2026-04-20 19:31 | 54.56516 | 8.24059 | 5719 ft | 356 kts | 203° |
| 2026-04-20 19:31 | 54.54313 | 8.22057 | 7701 ft | 362 kts | 204° |
| 2026-04-20 19:32 | 54.51997 | 8.20020 | 8897 ft | 390 kts | 204° |
| 2026-04-20 19:32 | 54.49478 | 8.17857 | 9017 ft | 417 kts | 204° |
| 2026-04-20 19:32 | 54.46843 | 8.15604 | 9018 ft | 427 kts | 204° |
| 2026-04-20 19:32 | 54.44194 | 8.13335 | 9016 ft | 421 kts | 204° |
| 2026-04-20 19:33 | 54.41589 | 8.11098 | 9015 ft | 416 kts | 204° |
| 2026-04-20 19:33 | 54.39005 | 8.08883 | 9010 ft | 415 kts | 204° |
| 2026-04-20 19:33 | 54.36425 | 8.06672 | 9009 ft | 414 kts | 204° |
| 2026-04-20 19:33 | 54.33849 | 8.04466 | 8993 ft | 404 kts | 204° |
| 2026-04-20 19:34 | 54.31525 | 8.02532 | 8532 ft | 387 kts | 200° |
| 2026-04-20 19:34 | 54.29053 | 8.00821 | 7834 ft | 403 kts | 197° |
| 2026-04-20 19:34 | 54.26380 | 7.99123 | 6786 ft | 410 kts | 196° |
| 2026-04-20 19:34 | 54.24472 | 7.97787 | 9285 ft | 231 kts | 199° |
| 2026-04-20 19:35 | 54.23263 | 7.96555 | 9160 ft | 205 kts | 252° |
| 2026-04-20 19:35 | 54.22993 | 7.94664 | 5299 ft | 104 kts | 150° |
| 2026-04-20 19:35 | 54.21342 | 7.95873 | 3115 ft | 257 kts | 148° |
| 2026-04-20 19:35 | 54.20009 | 7.97456 | 2340 ft | 209 kts | 124° |
| 2026-04-20 19:36 | 54.19749 | 7.99406 | 2389 ft | 152 kts | 66° |
| 2026-04-20 19:36 | 54.20359 | 7.99979 | 3514 ft | 59 kts | 39° |
| 2026-04-20 19:36 | 54.20556 | 7.99774 | 2474 ft | 17 kts | 64° |
| 2026-04-20 19:36 | 54.20367 | 8.00408 | 2334 ft | 122 kts | 175° |
| 2026-04-20 19:37 | 54.19515 | 7.99809 | 2140 ft | 145 kts | 207° |
| 2026-04-20 19:37 | 54.18842 | 7.98368 | 1786 ft | 161 kts | 232° |
| 2026-04-20 19:37 | 54.18480 | 7.96960 | 1480 ft | 119 kts | 265° |
| 2026-04-20 19:37 | 54.18399 | 7.95627 | 1068 ft | 111 kts | 263° |
| 2026-04-20 19:38 | 54.18223 | 7.94388 | 711 ft | 99 kts | 249° |
| 2026-04-20 19:38 | 54.17781 | 7.93472 | 527 ft | 127 kts | 221° |
| 2026-04-20 19:38 | 54.17260 | 7.92461 | 339 ft | 97 kts | 233° |
| 2026-04-20 19:38 | 54.17155 | 7.91332 | 350 ft | 89 kts | 293° |
| 2026-04-20 19:39 | 54.17527 | 7.90637 | 339 ft | 58 kts | 23° |
| 2026-04-20 19:39 | 54.17898 | 7.90909 | 262 ft | 50 kts | 43° |
| 2026-04-20 19:39 | 54.18236 | 7.91238 | 128 ft | 62 kts | 37° |
| 2026-04-20 19:39 | 54.18585 | 7.91532 | 6 ft | 48 kts | 40° |
| 2026-04-20 19:40 | 54.18763 | 7.91694 | 1 ft | 16 kts | 357° |
| 2026-04-20 19:40 | 54.18772 | 7.91640 | 4 ft | 0 kts | 234° |
| 2026-04-20 19:42 | 54.18750 | 7.91608 | 4 ft | 9 kts | 225° |
| 2026-04-20 19:43 | 54.18732 | 7.91567 | 4 ft | 0 kts | 220° |
| 2026-04-20 19:44 | 54.18719 | 7.91559 | 4 ft | 8 kts | 195° |
| 2026-04-20 19:44 | 54.18701 | 7.91576 | 5 ft | 5 kts | 136° |
| 2026-04-20 19:44 | 54.18680 | 7.91593 | 3 ft | 10 kts | 180° |
| 2026-04-20 19:45 | 54.18592 | 7.91541 | 3 ft | 13 kts | 204° |
| 2026-04-20 19:45 | 54.18538 | 7.91491 | 5 ft | 12 kts | 215° |
| 2026-04-20 19:45 | 54.18568 | 7.91417 | 4 ft | 9 kts | 315° |
| 2026-04-20 19:45 | 54.18572 | 7.91388 | 4 ft | 0 kts | 148° |
| 2026-04-20 19:48 | 54.18530 | 7.91491 | 5 ft | 12 kts | 31° |
| 2026-04-20 19:48 | 54.18863 | 7.91766 | 221 ft | 107 kts | 28° |
| 2026-04-20 19:48 | 54.19640 | 7.92411 | 433 ft | 116 kts | 64° |
| 2026-04-20 19:48 | 54.19227 | 7.93153 | 623 ft | 113 kts | 173° |
| 2026-04-20 19:49 | 54.18407 | 7.92668 | 287 ft | 134 kts | 198° |
| 2026-04-20 19:49 | 54.17665 | 7.91921 | 234 ft | 103 kts | 213° |
| 2026-04-20 19:49 | 54.17670 | 7.90957 | 266 ft | 78 kts | 349° |
| 2026-04-20 19:49 | 54.18058 | 7.91058 | 161 ft | 59 kts | 46° |
| 2026-04-20 19:50 | 54.18380 | 7.91347 | 57 ft | 48 kts | 40° |
| 2026-04-20 19:50 | 54.18650 | 7.91584 | 6 ft | 36 kts | 45° |
| 2026-04-20 19:50 | 54.18967 | 7.91898 | 343 ft | 52 kts | 41° |
| 2026-04-20 19:50 | 54.18913 | 7.92390 | 929 ft | 104 kts | 163° |
| 2026-04-20 19:51 | 54.17927 | 7.92530 | 2338 ft | 200 kts | 164° |
| 2026-04-20 19:51 | 54.16272 | 7.93013 | 4818 ft | 226 kts | 163° |
| 2026-04-20 19:51 | 54.14998 | 7.92759 | 9910 ft | 105 kts | 176° |
| 2026-04-20 19:51 | 54.14152 | 7.91937 | 8642 ft | 271 kts | 204° |
| 2026-04-20 19:52 | 54.12856 | 7.91510 | 4717 ft | 311 kts | 166° |
| 2026-04-20 19:52 | 54.10865 | 7.91921 | 4507 ft | 249 kts | 162° |
| 2026-04-20 19:52 | 54.09082 | 7.92718 | 5068 ft | 286 kts | 155° |
| 2026-04-20 19:52 | 54.08257 | 7.93272 | 7859 ft | 102 kts | 146° |
| 2026-04-20 19:53 | 54.07838 | 7.93487 | 8142 ft | 27 kts | 107° |
| 2026-04-20 19:53 | 54.07387 | 7.92738 | 6093 ft | 179 kts | 206° |
| 2026-04-20 19:53 | 54.06047 | 7.91229 | 6954 ft | 167 kts | 263° |
| 2026-04-20 19:53 | 54.06634 | 7.89476 | 9423 ft | 163 kts | 329° |
| 2026-04-20 19:54 | 54.07143 | 7.87521 | 4195 ft | 194 kts | 281° |
| 2026-04-20 19:54 | 54.05118 | 7.87305 | 376 ft | 375 kts | 147° |
| 2026-04-20 19:54 | 54.02986 | 7.89863 | 141 ft | 381 kts | 141° |
| 2026-04-20 19:54 | 54.00865 | 7.92550 | 290 ft | 373 kts | 139° |
| 2026-04-20 19:55 | 53.98942 | 7.95152 | 1994 ft | 323 kts | 136° |
| 2026-04-20 19:55 | 53.99119 | 7.97740 | 2950 ft | 368 kts | 5° |
| 2026-04-20 19:55 | 54.01747 | 7.96924 | 2698 ft | 398 kts | 345° |
| 2026-04-20 19:55 | 54.04327 | 7.95184 | 2860 ft | 401 kts | 341° |
| 2026-04-20 19:56 | 54.05884 | 7.94081 | 2658 ft | 343 kts | 342° |
| 2026-04-20 19:56 | 54.08039 | 7.92803 | 3452 ft | 186 kts | 341° |
| 2026-04-20 19:56 | 54.09690 | 7.92214 | 3995 ft | 239 kts | 12° |
| 2026-04-20 19:56 | 54.11239 | 7.93338 | 3869 ft | 279 kts | 60° |
| 2026-04-20 19:57 | 54.11510 | 7.96864 | 3739 ft | 338 kts | 82° |
| 2026-04-20 19:57 | 54.13199 | 7.98955 | 4036 ft | 389 kts | 345° |
| 2026-04-20 19:57 | 54.15472 | 7.97339 | 5460 ft | 206 kts | 357° |
| 2026-04-20 19:57 | 54.16903 | 7.96802 | 6276 ft | 206 kts | 351° |
| 2026-04-20 19:58 | 54.18379 | 7.96064 | 3822 ft | 223 kts | 351° |
| 2026-04-20 19:58 | 54.19758 | 7.95182 | 531 ft | 235 kts | 341° |
| 2026-04-20 19:58 | 54.20744 | 7.93372 | 184 ft | 205 kts | 269° |
| 2026-04-20 19:58 | 54.19871 | 7.92563 | 1298 ft | 155 kts | 159° |
| 2026-04-20 19:59 | 54.19407 | 7.93908 | 1152 ft | 125 kts | 77° |
| 2026-04-20 19:59 | 54.19528 | 7.95226 | 2289 ft | 123 kts | 116° |
| 2026-04-20 19:59 | 54.18791 | 7.94826 | 2751 ft | 117 kts | 214° |
| 2026-04-20 19:59 | 54.18134 | 7.94221 | 1672 ft | 99 kts | 173° |
| 2026-04-20 20:00 | 54.18166 | 7.94626 | 1047 ft | 79 kts | 344° |
| 2026-04-20 20:00 | 54.18314 | 7.93385 | 465 ft | 112 kts | 313° |
| 2026-04-20 20:00 | 54.18388 | 7.92516 | 527 ft | 86 kts | 202° |
| 2026-04-20 20:00 | 54.17831 | 7.91819 | 203 ft | 110 kts | 207° |
| 2026-04-20 20:01 | 54.17220 | 7.91222 | 395 ft | 97 kts | 242° |
| 2026-04-20 20:01 | 54.17416 | 7.90549 | 381 ft | 62 kts | 11° |
| 2026-04-20 20:01 | 54.17835 | 7.90862 | 244 ft | 65 kts | 40° |
| 2026-04-20 20:01 | 54.18225 | 7.91216 | 102 ft | 61 kts | 41° |
| 2026-04-20 20:02 | 54.18600 | 7.91557 | 4 ft | 51 kts | 33° |
| 2026-04-20 20:02 | 54.18707 | 7.91568 | 5 ft | 5 kts | 314° |
| 2026-04-20 20:02 | 54.18711 | 7.91562 | 5 ft | 0 kts | 314° |